createdAt,value
2022-11-21T00:01:59.358Z,30.88
2022-11-21T00:04:27.691Z,35.63
2022-11-21T00:06:55.453Z,28.25
2022-11-21T00:09:23.400Z,29.33
2022-11-21T00:11:52.709Z,30.95
2022-11-21T00:14:20.584Z,30.40
2022-11-21T00:16:49.500Z,32.35
2022-11-21T00:19:19.944Z,26.55
2022-11-21T00:21:47.402Z,33.05
2022-11-21T00:24:15.314Z,29.88
2022-11-21T00:26:42.799Z,28.70
2022-11-21T00:29:11.000Z,27.88
2022-11-21T00:31:38.532Z,30.90
2022-11-21T00:34:06.404Z,30.55
2022-11-21T00:36:33.892Z,26.10
2022-11-21T00:39:01.699Z,27.88
2022-11-21T00:41:29.211Z,31.13
2022-11-21T00:43:57.060Z,29.50
2022-11-21T00:46:24.526Z,29.52
2022-11-21T00:48:52.313Z,25.67
2022-11-21T00:51:19.824Z,30.02
2022-11-21T00:53:47.793Z,27.83
2022-11-21T00:56:15.252Z,26.80
2022-11-21T00:58:43.092Z,27.65
2022-11-21T01:01:15.287Z,28.65
2022-11-21T01:03:43.491Z,28.00
2022-11-21T01:06:14.398Z,28.92
2022-11-21T01:08:45.180Z,28.20
2022-11-21T01:11:16.754Z,24.67
2022-11-21T01:13:45.788Z,31.38
2022-11-21T01:16:18.852Z,27.90
2022-11-21T01:18:47.409Z,26.80
2022-11-21T01:21:17.733Z,29.65
2022-11-21T01:23:46.110Z,26.20
2022-11-21T01:26:23.429Z,26.63
2022-11-21T01:28:51.926Z,29.60
2022-11-21T01:31:29.249Z,26.30
2022-11-21T01:34:00.371Z,30.23
2022-11-21T01:36:31.419Z,36.88
2022-11-21T01:39:02.593Z,31.85
2022-11-21T01:41:42.935Z,31.95
2022-11-21T01:44:20.283Z,36.97
2022-11-21T01:46:49.639Z,38.97
2022-11-21T01:49:29.491Z,33.60
2022-11-21T01:52:25.566Z,30.63
2022-11-21T01:55:09.986Z,33.97
2022-11-21T01:57:48.523Z,31.98
2022-11-21T02:00:27.464Z,27.33
2022-11-21T02:03:02.251Z,36.38
2022-11-21T02:05:35.382Z,32.63
2022-11-21T02:08:09.981Z,37.65
2022-11-21T02:10:42.513Z,36.80
2022-11-21T02:13:10.167Z,33.80
2022-11-21T02:15:38.106Z,35.03
2022-11-21T02:18:09.716Z,43.15
2022-11-21T02:20:40.248Z,38.17
2022-11-21T02:23:33.968Z,32.20
2022-11-21T02:26:01.885Z,35.38
2022-11-21T02:28:29.672Z,34.45
2022-11-21T02:30:57.462Z,33.65
2022-11-21T02:33:24.911Z,37.22
2022-11-21T02:36:01.041Z,35.53
2022-11-21T02:38:36.819Z,33.85
2022-11-21T02:41:14.912Z,36.47
2022-11-21T02:43:54.844Z,33.35
2022-11-21T02:46:22.735Z,29.95
2022-11-21T02:48:50.207Z,35.35
2022-11-21T02:51:18.034Z,36.38
2022-11-21T02:53:46.330Z,34.38
2022-11-21T02:56:14.215Z,39.00
2022-11-21T02:58:42.079Z,37.30
2022-11-21T03:01:09.954Z,34.00
2022-11-21T03:03:37.502Z,40.70
2022-11-21T03:06:05.396Z,42.97
2022-11-21T03:08:32.953Z,41.85
2022-11-21T03:11:00.727Z,43.05
2022-11-21T03:13:28.201Z,43.83
2022-11-21T03:15:56.342Z,41.20
2022-11-21T03:18:23.841Z,41.05
2022-11-21T03:20:51.678Z,38.20
2022-11-21T03:23:19.245Z,40.22
2022-11-21T03:25:47.045Z,43.03
2022-11-21T03:28:14.601Z,40.95
2022-11-21T03:30:42.578Z,40.88
2022-11-21T03:33:10.043Z,39.88
2022-11-21T03:35:37.776Z,43.17
2022-11-21T03:38:05.306Z,41.65
2022-11-21T03:40:33.395Z,46.35
2022-11-21T03:43:06.305Z,42.97
2022-11-21T03:45:34.340Z,43.63
2022-11-21T03:48:01.912Z,41.53
2022-11-21T03:50:29.653Z,43.03
2022-11-21T03:52:57.077Z,45.17
2022-11-21T03:55:24.898Z,43.35
2022-11-21T03:57:52.389Z,40.03
2022-11-21T04:00:20.273Z,41.85
2022-11-21T04:03:06.444Z,45.67
2022-11-21T04:05:34.279Z,43.17
2022-11-21T04:08:01.756Z,55.53
2022-11-21T04:10:29.538Z,50.67
2022-11-21T04:12:57.063Z,45.35
2022-11-21T04:15:24.824Z,46.53
2022-11-21T04:17:53.126Z,43.38
2022-11-21T04:20:20.942Z,44.40
2022-11-21T04:22:49.626Z,48.15
2022-11-21T04:25:17.567Z,49.53
2022-11-21T04:27:45.060Z,44.50
2022-11-21T04:30:16.140Z,48.42
2022-11-21T04:32:44.341Z,46.78
2022-11-21T04:35:12.063Z,50.42
2022-11-21T04:37:39.842Z,45.15
2022-11-21T04:40:08.377Z,51.97
2022-11-21T04:42:35.848Z,46.10
2022-11-21T04:45:04.429Z,51.17
2022-11-21T04:47:31.886Z,47.42
2022-11-21T04:49:59.700Z,56.25
2022-11-21T04:52:27.253Z,49.67
2022-11-21T04:54:55.121Z,49.03
2022-11-21T04:57:23.345Z,50.03
2022-11-21T04:59:51.166Z,42.20
2022-11-21T05:02:18.730Z,47.40
2022-11-21T05:04:46.630Z,44.42
2022-11-21T05:07:14.931Z,51.22
2022-11-21T05:09:42.791Z,49.23
2022-11-21T05:12:29.914Z,48.30
2022-11-21T05:14:57.744Z,47.72
2022-11-21T05:17:25.218Z,49.20
2022-11-21T05:19:53.049Z,50.05
2022-11-21T05:22:20.711Z,45.10
2022-11-21T05:24:48.516Z,41.50
2022-11-21T05:27:15.988Z,47.40
2022-11-21T05:29:43.947Z,43.80
2022-11-21T05:32:11.510Z,46.90
2022-11-21T05:34:39.357Z,35.78
2022-11-21T05:37:07.031Z,47.00
2022-11-21T05:39:34.945Z,39.17
2022-11-21T05:42:03.313Z,40.22
2022-11-21T05:44:31.538Z,43.50
2022-11-21T05:46:59.331Z,42.10
2022-11-21T05:49:27.160Z,41.38
2022-11-21T05:51:55.070Z,44.80
2022-11-21T05:54:22.934Z,41.55
2022-11-21T05:56:50.478Z,46.70
2022-11-21T05:59:18.278Z,46.20
2022-11-21T06:02:04.470Z,40.22
2022-11-21T06:04:32.421Z,43.78
2022-11-21T06:07:00.039Z,45.70
2022-11-21T06:09:28.094Z,41.42
2022-11-21T06:11:55.589Z,47.70
2022-11-21T06:14:23.473Z,49.40
2022-11-21T06:16:51.608Z,50.35
2022-11-21T06:19:19.483Z,51.53
2022-11-21T06:21:46.969Z,46.03
2022-11-21T06:24:19.393Z,49.30
2022-11-21T06:26:49.315Z,46.33
2022-11-21T06:29:17.114Z,47.47
2022-11-21T06:31:44.593Z,51.00
2022-11-21T06:34:12.524Z,44.83
2022-11-21T06:36:39.992Z,42.83
2022-11-21T06:39:07.924Z,42.00
2022-11-21T06:41:35.648Z,51.42
2022-11-21T06:44:03.482Z,43.58
2022-11-21T06:46:30.980Z,43.72
2022-11-21T06:48:58.807Z,46.00
2022-11-21T06:51:26.690Z,47.05
2022-11-21T06:53:57.350Z,44.20
2022-11-21T06:56:26.627Z,43.17
2022-11-21T07:01:23.289Z,44.63
2022-11-21T07:03:51.835Z,46.22
2022-11-21T07:06:19.504Z,45.92
2022-11-21T07:08:52.450Z,48.03
2022-11-21T07:11:27.636Z,45.67
2022-11-21T07:13:56.515Z,38.72
2022-11-21T07:16:26.322Z,45.05
2022-11-21T07:18:54.418Z,48.20
2022-11-21T07:21:21.989Z,52.63
2022-11-21T07:23:49.833Z,44.55
2022-11-21T07:26:17.833Z,41.97
2022-11-21T07:28:45.710Z,41.28
2022-11-21T07:31:14.370Z,44.45
2022-11-21T07:33:46.945Z,47.17
2022-11-21T07:36:14.786Z,43.50
2022-11-21T07:38:42.684Z,41.17
2022-11-21T07:41:10.747Z,41.30
2022-11-21T07:43:38.713Z,38.75
2022-11-21T07:46:06.269Z,40.60
2022-11-21T07:48:33.584Z,58.40
2022-11-21T07:51:05.211Z,55.70
2022-11-21T07:53:32.773Z,64.15
2022-11-21T07:56:00.884Z,57.67
2022-11-21T07:58:28.468Z,50.15
2022-11-21T08:00:56.454Z,48.00
2022-11-21T08:03:25.365Z,44.65
2022-11-21T08:05:53.228Z,49.80
2022-11-21T08:08:20.678Z,49.33
2022-11-21T08:10:48.607Z,47.03
2022-11-21T08:13:16.123Z,46.40
2022-11-21T08:15:44.108Z,53.42
2022-11-21T08:18:19.168Z,49.35
2022-11-21T08:20:47.708Z,45.80
2022-11-21T08:23:16.019Z,39.00
2022-11-21T08:25:44.002Z,40.93
2022-11-21T08:28:12.563Z,34.45
2022-11-21T08:30:41.014Z,38.13
2022-11-21T08:33:08.808Z,44.75
2022-11-21T08:35:40.245Z,41.25
2022-11-21T08:38:08.259Z,42.17
2022-11-21T08:40:36.539Z,42.03
2022-11-21T08:43:09.626Z,45.22
2022-11-21T08:45:39.783Z,45.17
2022-11-21T08:48:13.042Z,40.65
2022-11-21T08:50:41.052Z,40.03
2022-11-21T08:53:08.406Z,39.47
2022-11-21T08:55:36.203Z,31.17
2022-11-21T08:58:03.784Z,34.38
2022-11-21T09:00:31.593Z,35.00
2022-11-21T09:03:03.877Z,37.22
2022-11-21T09:05:33.287Z,34.55
2022-11-21T09:08:00.705Z,38.90
2022-11-21T09:10:29.515Z,39.70
2022-11-21T09:13:00.523Z,35.08
2022-11-21T09:15:48.055Z,39.05
2022-11-21T09:18:15.612Z,35.55
2022-11-21T09:20:47.526Z,39.60
2022-11-21T09:23:17.205Z,35.95
2022-11-21T09:25:45.523Z,36.60
2022-11-21T09:28:14.503Z,35.47
2022-11-21T09:30:43.775Z,37.65
2022-11-21T09:33:14.282Z,32.78
2022-11-21T09:35:42.427Z,31.92
2022-11-21T09:38:10.198Z,34.72
2022-11-21T09:40:47.156Z,36.03
2022-11-21T09:43:29.428Z,39.70
2022-11-21T09:46:17.468Z,31.67
2022-11-21T09:48:58.456Z,34.40
2022-11-21T09:51:31.043Z,33.08
2022-11-21T09:54:03.839Z,35.30
2022-11-21T09:56:38.772Z,36.40
2022-11-21T09:59:32.744Z,37.67
2022-11-21T10:02:00.921Z,35.42
2022-11-21T10:04:29.912Z,31.73
2022-11-21T10:07:17.037Z,31.30
2022-11-21T10:10:22.751Z,30.85
2022-11-21T10:13:36.858Z,31.17
2022-11-21T10:16:26.380Z,33.67
2022-11-21T10:19:12.952Z,32.97
2022-11-21T10:22:05.967Z,32.20
2022-11-21T10:24:33.682Z,35.40
2022-11-21T10:27:16.102Z,27.27
2022-11-21T10:30:16.810Z,28.02
2022-11-21T10:33:20.326Z,23.33
2022-11-21T10:35:57.691Z,27.73
2022-11-21T10:38:30.968Z,23.65
2022-11-21T10:41:24.089Z,28.70
2022-11-21T10:44:43.922Z,27.15
2022-11-21T10:47:29.698Z,21.45
2022-11-21T10:50:40.414Z,25.58
2022-11-21T10:53:37.822Z,28.50
2022-11-21T10:56:14.670Z,25.10
2022-11-21T10:58:46.417Z,26.23
2022-11-21T11:01:30.844Z,24.45
2022-11-21T11:07:13.780Z,27.25
2022-11-21T11:09:46.942Z,22.75
2022-11-21T11:12:50.749Z,23.13
2022-11-21T11:15:28.124Z,24.50
2022-11-21T11:18:08.773Z,22.65
2022-11-21T11:20:45.615Z,25.63
2022-11-21T11:23:25.588Z,24.95
2022-11-21T11:25:58.416Z,21.98
2022-11-21T11:28:34.197Z,26.23
2022-11-21T11:31:02.231Z,35.30
2022-11-21T11:33:36.674Z,30.80
2022-11-21T11:36:15.618Z,24.30
2022-11-21T11:38:58.389Z,22.38
2022-11-21T11:42:06.687Z,21.95
2022-11-21T11:45:33.538Z,23.13
2022-11-21T11:48:10.572Z,24.92
2022-11-21T11:50:50.570Z,26.40
2022-11-21T11:53:26.785Z,22.40
2022-11-21T11:56:01.117Z,20.92
2022-11-21T11:58:43.879Z,20.08
2022-11-21T12:01:29.871Z,25.00
2022-11-21T12:04:30.341Z,24.42
2022-11-21T12:10:20.973Z,24.05
2022-11-21T12:13:03.266Z,19.27
2022-11-21T12:15:52.801Z,21.15
2022-11-21T12:18:24.328Z,21.00
2022-11-21T12:21:10.318Z,20.67
2022-11-21T12:23:48.600Z,17.83
2022-11-21T12:26:40.291Z,28.60
2022-11-21T12:29:35.189Z,25.40
2022-11-21T12:33:00.213Z,23.80
2022-11-21T12:35:37.169Z,22.60
2022-11-21T12:38:44.756Z,23.45
2022-11-21T12:41:54.418Z,25.02
2022-11-21T12:44:49.565Z,27.75
2022-11-21T12:48:29.691Z,28.40
2022-11-21T12:51:55.540Z,28.73
2022-11-21T12:54:52.757Z,29.20
2022-11-21T12:57:26.806Z,28.23
2022-11-21T13:00:15.456Z,28.60
2022-11-21T13:03:15.949Z,26.17
2022-11-21T13:05:49.895Z,19.92
2022-11-21T13:08:29.920Z,20.17
2022-11-21T13:11:48.923Z,19.45
2022-11-21T13:17:19.052Z,19.52
2022-11-21T13:20:06.072Z,24.00
2022-11-21T13:22:36.268Z,18.40
2022-11-21T13:25:29.388Z,20.55
2022-11-21T13:28:19.656Z,40.25
2022-11-21T13:30:52.021Z,25.15
2022-11-21T13:33:37.529Z,30.70
2022-11-21T13:36:12.384Z,25.98
2022-11-21T13:38:52.974Z,37.80
2022-11-21T13:41:54.722Z,46.88
2022-11-21T13:44:31.486Z,55.50
2022-11-21T13:47:27.473Z,33.08
2022-11-21T13:50:19.892Z,31.88
2022-11-21T13:53:22.549Z,29.73
2022-11-21T13:56:28.023Z,41.60
2022-11-21T13:59:21.577Z,45.90
2022-11-21T14:02:03.598Z,28.13
2022-11-21T14:04:54.656Z,23.98
2022-11-21T14:07:33.084Z,20.88
2022-11-21T14:10:24.090Z,25.20
2022-11-21T14:12:55.179Z,21.38
2022-11-21T14:15:36.588Z,21.35
2022-11-21T14:18:04.654Z,18.75
2022-11-21T14:20:49.560Z,18.75
2022-11-21T14:23:21.373Z,16.52
2022-11-21T14:26:00.215Z,16.30
2022-11-21T14:31:04.583Z,18.17
2022-11-21T14:33:35.198Z,19.65
2022-11-21T14:36:27.243Z,18.95
2022-11-21T14:39:34.576Z,22.05
2022-11-21T14:42:01.011Z,14.77
2022-11-21T14:44:31.944Z,17.38
2022-11-21T14:47:26.744Z,21.60
2022-11-21T14:49:59.804Z,17.77
2022-11-21T14:52:33.135Z,19.15
2022-11-21T14:57:53.782Z,17.48
2022-11-21T15:00:57.460Z,18.60
2022-11-21T15:03:23.120Z,18.13
2022-11-21T15:06:05.787Z,19.52
2022-11-21T15:09:52.723Z,19.60
2022-11-21T15:11:44.206Z,23.60
2022-11-21T15:14:58.441Z,20.30
2022-11-21T15:17:26.951Z,22.23
2022-11-21T15:20:12.795Z,21.63
2022-11-21T15:22:42.519Z,18.13
2022-11-21T15:25:24.034Z,16.40
2022-11-21T15:27:53.215Z,20.48
2022-11-21T15:30:39.321Z,16.85
2022-11-21T15:33:21.447Z,17.75
2022-11-21T15:35:56.052Z,22.45
2022-11-21T15:39:03.750Z,16.50
2022-11-21T15:41:35.108Z,18.83
2022-11-21T15:44:02.562Z,24.52
2022-11-21T15:46:41.877Z,17.80
2022-11-21T15:52:09.793Z,22.17
2022-11-21T15:54:48.447Z,22.73
2022-11-21T15:57:10.924Z,21.85
2022-11-21T15:59:46.292Z,27.85
2022-11-21T16:02:15.032Z,24.85
2022-11-21T16:04:42.726Z,23.30
2022-11-21T16:07:10.762Z,26.73
2022-11-21T16:09:39.073Z,23.48
2022-11-21T16:12:07.017Z,27.73
2022-11-21T16:14:34.577Z,31.23
2022-11-21T16:17:02.459Z,30.58
2022-11-21T16:19:30.350Z,24.30
2022-11-21T16:21:58.983Z,24.48
2022-11-21T16:24:27.192Z,26.40
2022-11-21T16:29:24.999Z,29.98
2022-11-21T16:31:55.863Z,23.02
2022-11-21T16:34:23.430Z,27.15
2022-11-21T16:36:51.656Z,26.42
2022-11-21T16:39:19.178Z,25.80
2022-11-21T16:41:49.136Z,31.23
2022-11-21T16:46:48.172Z,25.42
2022-11-21T16:49:16.068Z,29.10
2022-11-21T16:51:44.237Z,25.88
2022-11-21T16:54:11.864Z,28.42
2022-11-21T16:56:39.810Z,24.65
2022-11-21T16:59:07.307Z,25.67
2022-11-21T17:01:36.343Z,25.20
2022-11-21T17:04:04.794Z,25.65
2022-11-21T17:06:32.966Z,22.38
2022-11-21T17:09:02.064Z,24.60
2022-11-21T17:11:32.385Z,24.52
2022-11-21T17:14:04.637Z,26.90
2022-11-21T17:16:34.520Z,24.73
2022-11-21T17:19:03.385Z,22.50
2022-11-21T17:21:32.358Z,25.15
2022-11-21T17:24:00.697Z,22.20
2022-11-21T17:26:30.356Z,30.95
2022-11-21T17:29:01.152Z,25.88
2022-11-21T17:31:29.288Z,22.15
2022-11-21T17:33:58.084Z,26.92
2022-11-21T17:36:28.211Z,21.98
2022-11-21T17:38:56.730Z,21.75
2022-11-21T17:41:26.260Z,24.08
2022-11-21T17:43:56.260Z,23.98
2022-11-21T17:46:25.789Z,27.48
2022-11-21T17:48:57.666Z,22.33
2022-11-21T17:51:33.552Z,27.02
2022-11-21T17:54:02.038Z,25.98
2022-11-21T17:56:33.352Z,25.92
2022-11-21T17:59:01.810Z,25.42
2022-11-21T18:01:31.937Z,27.95
2022-11-21T18:04:13.339Z,22.45
2022-11-21T18:06:44.874Z,21.67
